NZCH/CHC METAR and TAF weather

Enter ICAO airport designator
Station Type Date Time Source
NZCH METAR 2019/10/21 04:30 UTC NOAA

NZCH 210430Z AUTO 21009KT 9999 BKN049/// 12/06 Q0999 TEMPO FM0530 7000 SHRA


Station Type Date Time Source
NZCH Decoded METAR 2019/10/21 04:30 UTC NOAA

Christchurch, New Zealand (NZCH) 43-29S 172-33E 30M
Oct 21, 2019 - 12:30 AM EDT / 2019.10.21 0430 UTC
Wind: from the SSW (210 degrees) at 10 MPH (9 KT):0
Visibility: greater than 7 mile(s):0
Sky conditions: mostly cloudy
Temperature: 53 F (12 C)
Dew Point: 42 F (6 C)
Relative Humidity: 66%
Pressure (altimeter): 29.50 in. Hg (0999 hPa)
ob: NZCH 210430Z AUTO 21009KT 9999 BKN049/// 12/06 Q0999 TEMPO FM0530 7000 SHRA
cycle: 4

Station Type Date Time Source
NZCH TAF 2019/10/20 18:03 UTC NOAA

TAF NZCH 201701Z 2018/2118 VRB02KT CAVOK
BECMG 2020/2022 32010KT
FM210200 20015KT 9999 -SHRA FEW020 SCT040 PROB30
TEMPO 2103/2107 3000 +SHRAGS BKN014 SCT020CB
BECMG 2104/2106 VRB02KT
BECMG 2114/2116 24010KT

Example: see airport list